createdAt,value
2022-07-30T00:00:32.923Z,2.58
2022-07-30T00:02:59.476Z,2.75
2022-07-30T00:05:25.941Z,2.72
2022-07-30T00:07:52.447Z,1.70
2022-07-30T00:10:20.527Z,2.17
2022-07-30T00:12:47.030Z,2.17
2022-07-30T00:15:13.457Z,3.78
2022-07-30T00:17:40.007Z,2.08
2022-07-30T00:20:06.769Z,3.20
2022-07-30T00:22:33.539Z,2.30
2022-07-30T00:25:00.022Z,4.80
2022-07-30T00:27:26.827Z,2.13
2022-07-30T00:29:53.281Z,3.30
2022-07-30T00:32:19.727Z,3.85
2022-07-30T00:34:46.613Z,1.63
2022-07-30T00:37:13.062Z,2.83
2022-07-30T00:39:39.489Z,2.20
2022-07-30T00:42:05.965Z,3.25
2022-07-30T00:44:32.515Z,2.83
2022-07-30T00:46:59.483Z,2.65
2022-07-30T00:49:26.849Z,7.80
2022-07-30T00:51:53.547Z,2.67
2022-07-30T00:54:21.325Z,3.00
2022-07-30T00:56:48.632Z,3.88
2022-07-30T00:59:15.310Z,2.90
2022-07-30T01:01:41.732Z,2.65
2022-07-30T01:04:11.557Z,4.63
2022-07-30T01:06:39.436Z,3.20
2022-07-30T01:09:07.054Z,2.95
2022-07-30T01:11:37.624Z,2.75
2022-07-30T01:14:06.246Z,4.90
2022-07-30T01:16:33.941Z,4.75
2022-07-30T01:19:21.027Z,3.55
2022-07-30T01:21:52.361Z,3.95
2022-07-30T01:24:26.692Z,5.45
2022-07-30T01:26:54.175Z,3.15
2022-07-30T01:29:21.275Z,4.63
2022-07-30T01:31:48.669Z,3.67
2022-07-30T01:34:15.455Z,4.22
2022-07-30T01:36:45.092Z,4.25
2022-07-30T01:39:12.449Z,3.67
2022-07-30T01:41:39.794Z,4.13
2022-07-30T01:44:06.673Z,3.05
2022-07-30T01:46:33.760Z,5.50
2022-07-30T01:49:01.143Z,4.28
2022-07-30T01:51:33.208Z,3.55
2022-07-30T01:54:00.642Z,4.55
2022-07-30T01:56:28.264Z,3.38
2022-07-30T01:58:55.561Z,2.90
2022-07-30T02:01:22.045Z,3.15
2022-07-30T02:03:48.672Z,3.75
2022-07-30T02:06:21.135Z,3.80
2022-07-30T02:08:59.349Z,3.13
2022-07-30T02:11:44.295Z,2.65
2022-07-30T02:14:22.941Z,2.33
2022-07-30T02:16:51.331Z,2.35
2022-07-30T02:19:18.593Z,3.15
2022-07-30T02:21:50.372Z,3.58
2022-07-30T02:24:20.461Z,2.97
2022-07-30T02:26:50.431Z,2.45
2022-07-30T02:29:18.151Z,2.35
2022-07-30T02:31:45.528Z,4.55
2022-07-30T02:34:14.214Z,4.53
2022-07-30T02:36:42.010Z,4.60
2022-07-30T02:39:08.526Z,4.28
2022-07-30T02:41:36.595Z,5.57
2022-07-30T02:44:03.647Z,5.53
2022-07-30T02:46:32.185Z,4.05
2022-07-30T02:48:58.963Z,7.25
2022-07-30T02:51:25.921Z,4.05
2022-07-30T02:53:53.624Z,3.55
2022-07-30T02:56:21.314Z,5.20
2022-07-30T02:58:48.821Z,7.97
2022-07-30T03:01:16.566Z,3.47
2022-07-30T03:03:43.853Z,4.15
2022-07-30T03:06:12.168Z,4.30
2022-07-30T03:08:38.739Z,7.28
2022-07-30T03:11:05.808Z,3.55
2022-07-30T03:13:32.324Z,5.55
2022-07-30T03:15:59.442Z,7.63
2022-07-30T03:18:30.744Z,3.78
2022-07-30T03:20:58.936Z,4.25
2022-07-30T03:23:25.542Z,4.63
2022-07-30T03:25:55.186Z,5.20
2022-07-30T03:28:22.735Z,5.45
2022-07-30T03:30:49.198Z,5.70
2022-07-30T03:33:16.230Z,4.50
2022-07-30T03:35:43.992Z,5.38
2022-07-30T03:38:14.483Z,6.65
2022-07-30T03:40:44.744Z,6.57
2022-07-30T03:43:32.336Z,4.05
2022-07-30T03:45:59.077Z,5.45
2022-07-30T03:48:25.956Z,4.50
2022-07-30T03:50:53.548Z,6.85
2022-07-30T03:53:20.643Z,3.78
2022-07-30T03:55:47.356Z,6.55
2022-07-30T03:58:13.780Z,5.55
2022-07-30T04:00:40.783Z,3.92
2022-07-30T04:03:07.725Z,4.15
2022-07-30T04:05:40.950Z,4.28
2022-07-30T04:08:08.191Z,4.47
2022-07-30T04:10:35.050Z,5.75
2022-07-30T04:13:01.497Z,5.40
2022-07-30T04:16:38.490Z,4.95
2022-07-30T04:18:15.867Z,4.75
2022-07-30T04:20:45.240Z,5.03
2022-07-30T04:23:12.024Z,6.18
2022-07-30T04:25:40.277Z,5.35
2022-07-30T04:28:06.954Z,5.05
2022-07-30T04:30:34.904Z,5.75
2022-07-30T04:33:02.969Z,4.43
2022-07-30T04:35:50.762Z,6.28
2022-07-30T04:38:17.828Z,5.45
2022-07-30T04:40:44.306Z,4.03
2022-07-30T04:43:10.761Z,4.28
2022-07-30T04:45:39.258Z,7.10
2022-07-30T04:48:06.278Z,4.05
2022-07-30T04:50:34.134Z,4.35
2022-07-30T04:53:01.230Z,6.18
2022-07-30T04:55:27.905Z,4.82
2022-07-30T04:57:55.095Z,3.63
2022-07-30T05:00:22.013Z,4.50
2022-07-30T05:02:49.300Z,5.18
2022-07-30T05:05:17.588Z,6.90
2022-07-30T05:07:44.547Z,8.05
2022-07-30T05:10:12.251Z,8.55
2022-07-30T05:12:38.944Z,4.88
2022-07-30T05:15:10.045Z,3.92
2022-07-30T05:17:36.956Z,5.35
2022-07-30T05:20:04.307Z,4.22
2022-07-30T05:22:30.738Z,7.18
2022-07-30T05:24:57.564Z,4.75
2022-07-30T05:27:24.090Z,6.57
2022-07-30T05:29:50.607Z,4.93
2022-07-30T05:32:17.070Z,5.07
2022-07-30T05:34:44.961Z,3.67
2022-07-30T05:37:16.619Z,4.13
2022-07-30T05:40:02.214Z,5.28
2022-07-30T05:42:29.536Z,5.20
2022-07-30T05:44:55.993Z,5.30
2022-07-30T05:47:22.876Z,3.97
2022-07-30T05:49:49.371Z,6.50
2022-07-30T05:52:15.824Z,6.45
2022-07-30T05:54:42.328Z,6.38
2022-07-30T05:57:08.759Z,4.95
2022-07-30T05:59:35.207Z,5.00
2022-07-30T06:02:03.304Z,8.23
2022-07-30T06:04:30.102Z,5.80
2022-07-30T06:06:56.565Z,6.53
2022-07-30T06:09:32.940Z,3.83
2022-07-30T06:12:04.021Z,4.10
2022-07-30T06:14:32.044Z,5.05
2022-07-30T06:16:58.864Z,4.40
2022-07-30T06:19:26.171Z,5.38
2022-07-30T06:22:06.263Z,4.40
2022-07-30T06:24:33.526Z,5.38
2022-07-30T06:27:00.377Z,4.53
2022-07-30T06:29:27.127Z,5.18
2022-07-30T06:31:53.599Z,4.63
2022-07-30T06:34:20.140Z,4.97
2022-07-30T06:36:46.658Z,4.60
2022-07-30T06:39:13.174Z,4.15
2022-07-30T06:41:40.725Z,3.90
2022-07-30T06:44:07.212Z,4.07
2022-07-30T06:46:33.757Z,3.67
2022-07-30T06:49:00.294Z,3.60
2022-07-30T06:51:27.266Z,4.28
2022-07-30T06:53:53.758Z,3.22
2022-07-30T06:56:20.231Z,4.18
2022-07-30T06:58:46.723Z,3.40
2022-07-30T07:01:13.257Z,3.83
2022-07-30T07:03:40.819Z,4.35
2022-07-30T07:06:07.698Z,4.65
2022-07-30T07:08:36.667Z,3.78
2022-07-30T07:11:03.145Z,3.30
2022-07-30T07:13:29.763Z,3.58
2022-07-30T07:15:57.523Z,4.30
2022-07-30T07:18:24.060Z,3.95
2022-07-30T07:20:50.529Z,4.25
2022-07-30T07:23:19.919Z,4.75
2022-07-30T07:25:47.356Z,3.55
2022-07-30T07:28:13.983Z,3.83
2022-07-30T07:30:44.222Z,4.57
2022-07-30T07:33:10.963Z,5.35
2022-07-30T07:35:48.971Z,4.28
2022-07-30T07:38:19.743Z,6.70
2022-07-30T07:40:47.379Z,4.93
2022-07-30T07:43:14.724Z,4.45
2022-07-30T07:45:42.646Z,3.38
2022-07-30T07:48:09.264Z,3.75
2022-07-30T07:50:36.516Z,4.68
2022-07-30T07:53:03.026Z,3.90
2022-07-30T07:55:29.498Z,4.05
2022-07-30T07:57:59.406Z,3.90
2022-07-30T08:00:26.593Z,3.72
2022-07-30T08:02:53.242Z,4.05
2022-07-30T08:05:19.924Z,3.60
2022-07-30T08:07:46.710Z,5.68
2022-07-30T08:10:15.102Z,4.03
2022-07-30T08:12:42.185Z,3.78
2022-07-30T08:15:12.035Z,4.53
2022-07-30T08:17:45.417Z,3.38
2022-07-30T08:20:13.893Z,4.00
2022-07-30T08:22:41.184Z,5.68
2022-07-30T08:25:08.537Z,4.63
2022-07-30T08:27:35.430Z,3.78
2022-07-30T08:30:06.618Z,3.47
2022-07-30T08:32:33.150Z,3.92
2022-07-30T08:34:59.658Z,3.35
2022-07-30T08:37:26.448Z,3.30
2022-07-30T08:39:52.926Z,3.42
2022-07-30T08:42:19.432Z,4.07
2022-07-30T08:44:46.632Z,3.55
2022-07-30T08:47:16.909Z,3.63
2022-07-30T08:49:44.684Z,3.55
2022-07-30T08:52:11.240Z,3.85
2022-07-30T08:54:39.179Z,5.40
2022-07-30T08:57:06.067Z,3.10
2022-07-30T09:00:00.004Z,4.13
2022-07-30T09:02:27.516Z,4.47
2022-07-30T09:04:54.693Z,3.22
2022-07-30T09:07:21.260Z,5.07
2022-07-30T09:09:47.746Z,4.97
2022-07-30T09:12:37.152Z,3.78
2022-07-30T09:15:08.117Z,3.83
2022-07-30T09:18:06.909Z,4.70
2022-07-30T09:20:34.895Z,5.47
2022-07-30T09:23:03.291Z,3.50
2022-07-30T09:25:44.655Z,3.97
2022-07-30T09:28:16.716Z,6.57
2022-07-30T09:30:54.438Z,4.50
2022-07-30T09:33:38.777Z,3.70
2022-07-30T09:36:09.994Z,4.07
2022-07-30T09:38:42.654Z,3.67
2022-07-30T09:41:23.028Z,3.90
2022-07-30T09:43:55.958Z,3.65
2022-07-30T09:46:22.454Z,4.32
2022-07-30T09:48:49.409Z,3.53
2022-07-30T09:51:16.200Z,3.67
2022-07-30T09:54:00.959Z,4.10
2022-07-30T09:56:29.323Z,3.17
2022-07-30T09:58:56.732Z,4.78
2022-07-30T10:01:23.352Z,3.33
2022-07-30T10:04:09.838Z,3.45
2022-07-30T10:06:41.709Z,3.35
2022-07-30T10:09:13.995Z,4.07
2022-07-30T10:11:44.664Z,4.05
2022-07-30T10:14:11.936Z,3.72
2022-07-30T10:16:38.499Z,3.25
2022-07-30T10:19:05.283Z,2.97
2022-07-30T10:21:40.185Z,2.80
2022-07-30T10:24:06.958Z,4.30
2022-07-30T10:26:35.077Z,3.38
2022-07-30T10:29:02.044Z,4.47
2022-07-30T10:31:48.412Z,4.53
2022-07-30T10:34:17.515Z,5.50
2022-07-30T10:36:47.798Z,2.95
2022-07-30T10:39:20.544Z,2.65
2022-07-30T10:41:59.130Z,2.95
2022-07-30T10:44:34.675Z,2.97
2022-07-30T10:47:07.695Z,2.70
2022-07-30T10:49:41.555Z,3.42
2022-07-30T10:52:09.863Z,2.97
2022-07-30T10:54:39.381Z,3.92
2022-07-30T10:57:23.038Z,2.63
2022-07-30T11:00:04.156Z,3.03
2022-07-30T11:02:35.473Z,5.47
2022-07-30T11:05:17.659Z,3.20
2022-07-30T11:07:45.326Z,5.25
2022-07-30T11:10:39.520Z,3.45
2022-07-30T11:13:09.633Z,3.28
2022-07-30T11:15:55.998Z,2.72
2022-07-30T11:18:25.018Z,3.42
2022-07-30T11:21:20.604Z,2.65
2022-07-30T11:23:48.133Z,3.40
2022-07-30T11:26:38.613Z,4.20
2022-07-30T11:29:32.972Z,3.33
2022-07-30T11:32:29.696Z,3.53
2022-07-30T11:35:18.289Z,2.83
2022-07-30T11:38:02.907Z,2.63
2022-07-30T11:40:32.950Z,3.35
2022-07-30T11:43:15.878Z,3.83
2022-07-30T11:45:42.622Z,1.90
2022-07-30T11:48:14.162Z,2.67
2022-07-30T11:50:41.281Z,3.40
2022-07-30T11:53:09.467Z,3.15
2022-07-30T11:55:38.953Z,2.47
2022-07-30T11:58:08.487Z,3.92
2022-07-30T12:00:37.710Z,3.45
2022-07-30T12:03:24.985Z,3.15
2022-07-30T12:05:53.231Z,4.78
2022-07-30T12:08:35.284Z,3.00
2022-07-30T12:11:02.888Z,2.50
2022-07-30T12:13:45.034Z,2.35
2022-07-30T12:16:16.441Z,3.17
2022-07-30T12:18:43.378Z,3.30
2022-07-30T12:21:15.595Z,2.40
2022-07-30T12:23:43.557Z,2.95
2022-07-30T12:26:24.607Z,2.72
2022-07-30T12:28:54.951Z,3.40
2022-07-30T12:31:21.436Z,2.65
2022-07-30T12:33:47.866Z,2.50
2022-07-30T12:36:34.519Z,2.28
2022-07-30T12:39:02.652Z,3.80
2022-07-30T12:41:43.284Z,3.67
2022-07-30T12:44:10.111Z,2.53
2022-07-30T12:46:41.198Z,3.00
2022-07-30T12:49:21.520Z,2.15
2022-07-30T12:51:59.733Z,3.60
2022-07-30T12:54:27.707Z,4.15
2022-07-30T12:57:03.072Z,3.58
2022-07-30T12:59:31.056Z,2.80
2022-07-30T13:02:00.277Z,2.90
2022-07-30T13:04:27.509Z,3.22
2022-07-30T13:07:04.728Z,3.50
2022-07-30T13:09:31.555Z,4.32
2022-07-30T13:11:58.000Z,3.55
2022-07-30T13:14:26.595Z,2.83
2022-07-30T13:16:55.022Z,2.40
2022-07-30T13:19:21.744Z,3.55
2022-07-30T13:21:49.689Z,2.45
2022-07-30T13:24:17.865Z,2.45
2022-07-30T13:26:45.109Z,2.70
2022-07-30T13:29:13.429Z,2.33
2022-07-30T13:31:42.518Z,2.10
2022-07-30T13:34:09.767Z,2.55
2022-07-30T13:36:36.259Z,2.40
2022-07-30T13:39:02.693Z,2.67
2022-07-30T13:41:29.457Z,3.25
2022-07-30T13:43:55.929Z,3.33
2022-07-30T13:46:22.361Z,2.33
2022-07-30T13:48:48.940Z,2.25
2022-07-30T13:51:16.500Z,2.30
2022-07-30T13:53:42.966Z,2.28
2022-07-30T13:56:12.805Z,2.40
2022-07-30T13:58:39.843Z,2.75
2022-07-30T14:01:07.031Z,2.70
2022-07-30T14:03:33.784Z,2.38
2022-07-30T14:06:11.008Z,2.25
2022-07-30T14:08:38.544Z,2.35
2022-07-30T14:11:05.105Z,2.15
2022-07-30T14:13:31.583Z,3.00
2022-07-30T14:15:58.375Z,2.60
2022-07-30T14:18:24.821Z,2.80
2022-07-30T14:20:53.585Z,2.85
2022-07-30T14:23:20.139Z,3.17
2022-07-30T14:25:46.768Z,2.38
2022-07-30T14:28:13.260Z,2.30
2022-07-30T14:30:39.744Z,2.45
2022-07-30T14:33:06.198Z,2.78
2022-07-30T14:35:32.673Z,2.10
2022-07-30T14:37:59.120Z,2.40
2022-07-30T14:40:25.579Z,2.13
2022-07-30T14:42:52.013Z,2.15
2022-07-30T14:45:22.541Z,2.50
2022-07-30T14:47:48.978Z,2.20
2022-07-30T14:50:15.425Z,2.50
2022-07-30T14:52:41.870Z,2.05
2022-07-30T14:55:09.420Z,3.40
2022-07-30T14:57:35.984Z,3.97
2022-07-30T15:00:03.899Z,2.50
2022-07-30T15:02:30.343Z,2.13
2022-07-30T15:04:56.836Z,2.80
2022-07-30T15:07:23.309Z,1.95
2022-07-30T15:09:49.777Z,2.03
2022-07-30T15:12:23.444Z,1.92
2022-07-30T15:14:53.772Z,1.98
2022-07-30T15:17:20.297Z,2.33
2022-07-30T15:19:50.266Z,2.60
2022-07-30T15:22:20.381Z,3.22
2022-07-30T15:24:47.251Z,3.47
2022-07-30T15:27:13.760Z,2.15
2022-07-30T15:29:40.241Z,2.33
2022-07-30T15:32:07.215Z,2.30
2022-07-30T15:34:34.258Z,1.90
2022-07-30T15:37:01.775Z,2.20
2022-07-30T15:39:29.471Z,2.40
2022-07-30T15:41:57.040Z,1.92
2022-07-30T15:44:24.147Z,1.88
2022-07-30T15:46:50.659Z,2.10
2022-07-30T15:49:17.193Z,2.80
2022-07-30T15:51:48.534Z,2.13
2022-07-30T15:54:22.896Z,3.15
2022-07-30T15:56:50.562Z,2.33
2022-07-30T15:59:17.116Z,2.17
2022-07-30T16:01:44.036Z,2.97
2022-07-30T16:04:19.706Z,3.10
2022-07-30T16:06:47.263Z,2.03
2022-07-30T16:09:13.727Z,1.90
2022-07-30T16:11:41.560Z,2.25
2022-07-30T16:14:08.963Z,2.15
2022-07-30T16:16:35.406Z,1.70
2022-07-30T16:19:01.884Z,2.33
2022-07-30T16:21:28.311Z,2.00
2022-07-30T16:23:55.182Z,1.80
2022-07-30T16:26:21.661Z,2.00
2022-07-30T16:28:48.238Z,1.70
2022-07-30T16:31:14.688Z,1.80
2022-07-30T16:33:41.548Z,1.55
2022-07-30T16:36:08.210Z,1.80
2022-07-30T16:38:34.723Z,3.30
2022-07-30T16:41:01.394Z,1.80
2022-07-30T16:43:27.853Z,1.95
2022-07-30T16:45:54.303Z,1.75
2022-07-30T16:48:20.736Z,1.60
2022-07-30T16:50:47.282Z,1.95
2022-07-30T16:53:14.652Z,2.47
2022-07-30T16:55:42.457Z,2.58
2022-07-30T16:58:09.177Z,2.05
2022-07-30T17:00:35.676Z,1.63
2022-07-30T17:03:02.234Z,1.83
2022-07-30T17:05:28.969Z,2.00
2022-07-30T17:07:55.512Z,1.88
2022-07-30T17:10:23.557Z,1.88
2022-07-30T17:12:53.103Z,1.80
2022-07-30T17:15:19.614Z,2.40
2022-07-30T17:17:46.305Z,1.95
2022-07-30T17:20:14.552Z,2.17
2022-07-30T17:22:43.165Z,1.83
2022-07-30T17:25:10.175Z,2.25
2022-07-30T17:27:37.385Z,2.15
2022-07-30T17:30:04.923Z,2.53
2022-07-30T17:32:31.510Z,1.80
2022-07-30T17:34:58.168Z,2.63
2022-07-30T17:37:24.910Z,2.13
2022-07-30T17:40:19.039Z,2.08
2022-07-30T17:42:39.869Z,1.80
2022-07-30T17:45:07.666Z,1.98
2022-07-30T17:47:34.273Z,1.70
2022-07-30T17:50:01.030Z,2.00
2022-07-30T17:52:27.969Z,3.30
2022-07-30T17:54:54.920Z,1.77
2022-07-30T17:57:21.692Z,3.78
2022-07-30T17:59:48.439Z,2.53
2022-07-30T18:02:15.157Z,3.08
2022-07-30T18:04:41.933Z,2.58
2022-07-30T18:07:08.556Z,1.83
2022-07-30T18:09:39.670Z,2.05
2022-07-30T18:12:08.173Z,2.42
2022-07-30T18:14:34.900Z,2.53
2022-07-30T18:17:02.974Z,1.95
2022-07-30T18:19:29.679Z,2.03
2022-07-30T18:21:56.932Z,2.65
2022-07-30T18:24:24.612Z,1.90
2022-07-30T18:26:51.932Z,2.22
2022-07-30T18:29:18.582Z,1.95
2022-07-30T18:31:45.340Z,2.15
2022-07-30T18:34:11.992Z,3.42
2022-07-30T18:36:38.652Z,2.13
2022-07-30T18:39:06.571Z,2.00
2022-07-30T18:41:33.225Z,2.38
2022-07-30T18:43:59.760Z,1.70
2022-07-30T18:46:26.358Z,2.10
2022-07-30T18:48:53.092Z,2.92
2022-07-30T18:51:19.907Z,2.08
2022-07-30T18:53:47.601Z,2.03
2022-07-30T18:56:14.240Z,1.80
2022-07-30T18:58:40.908Z,1.83
2022-07-30T19:01:07.595Z,1.63
2022-07-30T19:03:34.984Z,2.08
2022-07-30T19:06:01.876Z,2.05
2022-07-30T19:08:28.487Z,2.33
2022-07-30T19:10:55.600Z,1.83
2022-07-30T19:13:24.181Z,1.80
2022-07-30T19:15:51.116Z,2.78
2022-07-30T19:18:17.938Z,2.70
2022-07-30T19:20:44.535Z,2.28
2022-07-30T19:23:12.300Z,2.55
2022-07-30T19:25:39.367Z,2.20
2022-07-30T19:28:06.050Z,2.30
2022-07-30T19:30:33.193Z,2.30
2022-07-30T19:33:10.236Z,2.05
2022-07-30T19:35:41.392Z,2.53
2022-07-30T19:38:09.872Z,3.38
2022-07-30T19:40:42.329Z,2.05
2022-07-30T19:43:10.351Z,2.45
2022-07-30T19:45:47.793Z,3.38
2022-07-30T19:48:15.219Z,2.90
2022-07-30T19:50:56.496Z,3.03
2022-07-30T19:53:23.144Z,2.72
2022-07-30T19:55:50.948Z,4.93
2022-07-30T19:58:17.987Z,3.10
2022-07-30T20:00:49.376Z,2.33
2022-07-30T20:03:18.965Z,2.30
2022-07-30T20:05:57.275Z,2.15
2022-07-30T20:08:27.091Z,1.73
2022-07-30T20:10:57.583Z,1.80
2022-07-30T20:13:45.214Z,2.97
2022-07-30T20:16:12.320Z,2.30
2022-07-30T20:18:39.782Z,2.55
2022-07-30T20:21:08.359Z,2.40
2022-07-30T20:23:39.629Z,2.95
2022-07-30T20:26:12.670Z,2.33
2022-07-30T20:28:40.751Z,2.28
2022-07-30T20:31:08.500Z,2.22
2022-07-30T20:33:36.133Z,2.10
2022-07-30T20:36:04.744Z,2.45
2022-07-30T20:38:34.477Z,2.08
2022-07-30T20:41:20.353Z,2.20
2022-07-30T20:46:35.167Z,2.85
2022-07-30T20:49:02.955Z,2.92
2022-07-30T20:51:33.544Z,2.03
2022-07-30T20:54:00.529Z,4.00
2022-07-30T20:56:28.550Z,2.20
2022-07-30T20:58:56.616Z,2.30
2022-07-30T21:01:23.437Z,3.08
2022-07-30T21:03:50.176Z,3.22
2022-07-30T21:06:17.060Z,3.42
2022-07-30T21:08:43.815Z,3.05
2022-07-30T21:11:12.424Z,2.53
2022-07-30T21:13:39.533Z,2.97
2022-07-30T21:16:15.835Z,3.05
2022-07-30T21:18:49.903Z,2.40
2022-07-30T21:21:17.843Z,4.75
2022-07-30T21:23:56.231Z,2.55
2022-07-30T21:26:23.412Z,3.40
2022-07-30T21:28:50.494Z,2.85
2022-07-30T21:31:19.141Z,2.85
2022-07-30T21:34:05.883Z,2.90
2022-07-30T21:36:32.634Z,2.40
2022-07-30T21:39:00.310Z,2.70
2022-07-30T21:41:39.971Z,2.80
2022-07-30T21:44:07.476Z,3.40
2022-07-30T21:46:34.281Z,2.92
2022-07-30T21:49:01.015Z,3.17
2022-07-30T21:51:27.788Z,2.97
2022-07-30T21:53:54.534Z,2.95
2022-07-30T21:56:24.657Z,2.75
2022-07-30T21:58:51.818Z,2.67
2022-07-30T22:01:22.642Z,3.25
2022-07-30T22:04:03.923Z,3.35
2022-07-30T22:06:38.204Z,2.70
2022-07-30T22:09:26.268Z,2.85
2022-07-30T22:11:53.680Z,2.97
2022-07-30T22:14:20.417Z,2.90
2022-07-30T22:16:47.053Z,3.38
2022-07-30T22:19:14.847Z,2.92
2022-07-30T22:21:42.620Z,2.88
2022-07-30T22:27:01.723Z,3.25
2022-07-30T22:29:38.289Z,3.13
2022-07-30T22:32:06.892Z,2.95
2022-07-30T22:34:34.725Z,4.65
2022-07-30T22:37:01.251Z,2.83
2022-07-30T22:39:32.079Z,3.15
2022-07-30T22:42:15.724Z,3.00
2022-07-30T22:44:46.069Z,3.10
2022-07-30T22:47:51.333Z,2.97
2022-07-30T22:50:17.500Z,3.42
2022-07-30T22:52:52.812Z,4.10
2022-07-30T22:55:25.918Z,2.95
2022-07-30T22:57:53.017Z,3.10
2022-07-30T23:00:28.252Z,2.92
2022-07-30T23:02:55.693Z,3.22
2022-07-30T23:05:22.765Z,3.58
2022-07-30T23:07:49.913Z,3.33
2022-07-30T23:10:18.624Z,3.92
2022-07-30T23:12:19.120Z,2.00
2022-07-30T23:12:32.308Z,3.53
2022-07-30T23:12:53.877Z,3.47
2022-07-30T23:15:20.885Z,3.40
2022-07-30T23:17:47.821Z,4.47
2022-07-30T23:20:20.436Z,3.13
2022-07-30T23:22:47.439Z,3.05
2022-07-30T23:25:14.001Z,2.80
2022-07-30T23:27:41.535Z,3.83
2022-07-30T23:30:09.837Z,3.50
2022-07-30T23:32:36.986Z,3.60
2022-07-30T23:35:04.484Z,2.92
2022-07-30T23:37:47.769Z,3.60
2022-07-30T23:40:16.628Z,4.43
2022-07-30T23:42:43.226Z,3.75
2022-07-30T23:45:10.341Z,3.15
2022-07-30T23:47:52.149Z,3.50
2022-07-30T23:50:25.241Z,3.75
2022-07-30T23:52:52.031Z,3.45
2022-07-30T23:55:18.707Z,4.38
2022-07-30T23:57:45.613Z,3.88
